sensor_id;sensor_type;location;lat;lon;timestamp;pressure;altitude;pressure_sealevel;temperature;humidity
79586;BME280;69054;50.866;4.636;2024-01-06T00:02:05;99867.66;;;5.71;100.00
79586;BME280;69054;50.866;4.636;2024-01-06T00:04:31;99865.13;;;5.69;100.00
79586;BME280;69054;50.866;4.636;2024-01-06T00:06:57;99864.94;;;5.71;100.00
79586;BME280;69054;50.866;4.636;2024-01-06T00:09:22;99866.19;;;5.68;100.00
79586;BME280;69054;50.866;4.636;2024-01-06T00:11:47;99872.72;;;5.74;100.00
79586;BME280;69054;50.866;4.636;2024-01-06T00:14:15;99874.97;;;5.70;100.00
79586;BME280;69054;50.866;4.636;2024-01-06T00:16:41;99876.34;;;5.66;100.00
79586;BME280;69054;50.866;4.636;2024-01-06T00:19:07;99881.31;;;5.62;100.00
79586;BME280;69054;50.866;4.636;2024-01-06T00:21:32;99886.91;;;5.61;100.00
79586;BME280;69054;50.866;4.636;2024-01-06T00:23:58;99884.84;;;5.63;100.00
79586;BME280;69054;50.866;4.636;2024-01-06T00:26:23;99887.28;;;5.58;100.00
79586;BME280;69054;50.866;4.636;2024-01-06T00:28:49;99886.09;;;5.60;100.00
79586;BME280;69054;50.866;4.636;2024-01-06T00:31:15;99886.91;;;5.61;100.00
79586;BME280;69054;50.866;4.636;2024-01-06T00:33:43;99882.69;;;5.58;100.00
79586;BME280;69054;50.866;4.636;2024-01-06T00:36:08;99889.69;;;5.53;100.00
79586;BME280;69054;50.866;4.636;2024-01-06T00:38:34;99897.31;;;5.57;100.00
79586;BME280;69054;50.866;4.636;2024-01-06T00:41:03;99883.75;;;5.57;100.00
79586;BME280;69054;50.866;4.636;2024-01-06T00:43:28;99884.59;;;5.58;100.00
79586;BME280;69054;50.866;4.636;2024-01-06T00:45:53;99889.81;;;5.59;100.00
79586;BME280;69054;50.866;4.636;2024-01-06T00:48:19;99887.09;;;5.59;100.00
79586;BME280;69054;50.866;4.636;2024-01-06T00:50:44;99892.91;;;5.56;100.00
79586;BME280;69054;50.866;4.636;2024-01-06T00:53:11;99899.81;;;5.59;100.00
79586;BME280;69054;50.866;4.636;2024-01-06T00:55:37;99900.00;;;5.57;100.00
79586;BME280;69054;50.866;4.636;2024-01-06T00:58:02;99904.19;;;5.60;100.00
79586;BME280;69054;50.866;4.636;2024-01-06T01:00:28;99904.56;;;5.57;100.00
79586;BME280;69054;50.866;4.636;2024-01-06T01:02:53;99901.69;;;5.58;100.00
79586;BME280;69054;50.866;4.636;2024-01-06T01:05:19;99902.34;;;5.60;100.00
79586;BME280;69054;50.866;4.636;2024-01-06T01:07:44;99903.19;;;5.61;100.00
79586;BME280;69054;50.866;4.636;2024-01-06T01:10:10;99902.16;;;5.62;100.00
79586;BME280;69054;50.866;4.636;2024-01-06T01:12:35;99907.97;;;5.59;100.00
79586;BME280;69054;50.866;4.636;2024-01-06T01:15:01;99912.31;;;5.60;100.00
79586;BME280;69054;50.866;4.636;2024-01-06T01:17:27;99911.69;;;5.58;100.00
79586;BME280;69054;50.866;4.636;2024-01-06T01:19:52;99911.88;;;5.56;100.00
79586;BME280;69054;50.866;4.636;2024-01-06T01:22:17;99905.81;;;5.54;100.00
79586;BME280;69054;50.866;4.636;2024-01-06T01:24:43;99919.81;;;5.58;100.00
79586;BME280;69054;50.866;4.636;2024-01-06T01:27:08;99921.88;;;5.56;100.00
79586;BME280;69054;50.866;4.636;2024-01-06T01:29:34;99915.41;;;5.57;100.00
79586;BME280;69054;50.866;4.636;2024-01-06T01:32:00;99918.13;;;5.57;100.00
79586;BME280;69054;50.866;4.636;2024-01-06T01:34:25;99918.13;;;5.57;100.00
79586;BME280;69054;50.866;4.636;2024-01-06T01:36:50;99919.34;;;5.54;100.00
79586;BME280;69054;50.866;4.636;2024-01-06T01:39:16;99923.34;;;5.58;100.00
79586;BME280;69054;50.866;4.636;2024-01-06T01:41:42;99925.41;;;5.56;100.00
79586;BME280;69054;50.866;4.636;2024-01-06T01:44:07;99927.94;;;5.58;100.00
79586;BME280;69054;50.866;4.636;2024-01-06T01:46:33;99930.00;;;5.56;100.00
79586;BME280;69054;50.866;4.636;2024-01-06T01:49:00;99932.72;;;5.56;100.00
79586;BME280;69054;50.866;4.636;2024-01-06T01:51:30;99940.09;;;5.62;100.00
79586;BME280;69054;50.866;4.636;2024-01-06T01:54:03;99935.25;;;5.57;100.00
79586;BME280;69054;50.866;4.636;2024-01-06T01:56:31;99941.50;;;5.58;100.00
79586;BME280;69054;50.866;4.636;2024-01-06T01:59:05;99936.25;;;5.56;100.00
79586;BME280;69054;50.866;4.636;2024-01-06T02:01:31;99944.56;;;5.55;100.00
79586;BME280;69054;50.866;4.636;2024-01-06T02:03:57;99942.50;;;5.57;100.00
79586;BME280;69054;50.866;4.636;2024-01-06T02:06:23;99948.13;;;5.55;100.00
79586;BME280;69054;50.866;4.636;2024-01-06T02:08:48;99946.59;;;5.53;100.00
79586;BME280;69054;50.866;4.636;2024-01-06T02:11:14;99942.88;;;5.54;100.00
79586;BME280;69054;50.866;4.636;2024-01-06T02:13:39;99947.47;;;5.53;100.00
79586;BME280;69054;50.866;4.636;2024-01-06T02:16:05;99957.94;;;5.56;100.00
79586;BME280;69054;50.866;4.636;2024-01-06T02:18:31;99959.44;;;5.59;100.00
79586;BME280;69054;50.866;4.636;2024-01-06T02:20:59;99964.56;;;5.54;100.00
79586;BME280;69054;50.866;4.636;2024-01-06T02:23:25;99967.94;;;5.56;100.00
79586;BME280;69054;50.866;4.636;2024-01-06T02:25:54;99964.19;;;5.57;100.00
79586;BME280;69054;50.866;4.636;2024-01-06T02:28:20;99973.38;;;5.56;100.00
79586;BME280;69054;50.866;4.636;2024-01-06T02:30:45;99976.09;;;5.56;100.00
79586;BME280;69054;50.866;4.636;2024-01-06T02:33:11;99973.56;;;5.54;100.00
79586;BME280;69054;50.866;4.636;2024-01-06T02:35:36;99978.78;;;5.56;100.00
79586;BME280;69054;50.866;4.636;2024-01-06T02:38:02;99977.09;;;5.55;100.00
79586;BME280;69054;50.866;4.636;2024-01-06T02:40:27;99988.59;;;5.57;100.00
79586;BME280;69054;50.866;4.636;2024-01-06T02:42:53;99981.69;;;5.54;100.00
79586;BME280;69054;50.866;4.636;2024-01-06T02:45:19;99989.97;;;5.53;100.00
79586;BME280;69054;50.866;4.636;2024-01-06T02:47:44;99995.06;;;5.56;100.00
79586;BME280;69054;50.866;4.636;2024-01-06T02:50:10;100003.00;;;5.57;100.00
79586;BME280;69054;50.866;4.636;2024-01-06T02:52:35;100006.53;;;5.58;100.00
79586;BME280;69054;50.866;4.636;2024-01-06T02:55:00;100003.84;;;5.58;100.00
79586;BME280;69054;50.866;4.636;2024-01-06T02:57:29;100004.66;;;5.58;100.00
79586;BME280;69054;50.866;4.636;2024-01-06T02:59:54;100005.53;;;5.59;100.00
79586;BME280;69054;50.866;4.636;2024-01-06T03:02:20;100007.88;;;5.62;100.00
79586;BME280;69054;50.866;4.636;2024-01-06T03:04:45;100001.91;;;5.66;100.00
79586;BME280;69054;50.866;4.636;2024-01-06T03:07:11;100007.97;;;5.68;100.00
79586;BME280;69054;50.866;4.636;2024-01-06T03:09:36;100013.22;;;5.70;100.00
79586;BME280;69054;50.866;4.636;2024-01-06T03:12:06;100014.41;;;5.67;100.00
79586;BME280;69054;50.866;4.636;2024-01-06T03:14:34;100022.72;;;5.66;100.00
79586;BME280;69054;50.866;4.636;2024-01-06T03:17:00;100019.38;;;5.64;100.00
79586;BME280;69054;50.866;4.636;2024-01-06T03:19:25;100025.25;;;5.67;100.00
79586;BME280;69054;50.866;4.636;2024-01-06T03:21:52;100029.00;;;5.66;100.00
79586;BME280;69054;50.866;4.636;2024-01-06T03:24:18;100032.56;;;5.67;100.00
79586;BME280;69054;50.866;4.636;2024-01-06T03:26:44;100031.72;;;5.66;100.00
79586;BME280;69054;50.866;4.636;2024-01-06T03:29:09;100039.84;;;5.66;100.00
79586;BME280;69054;50.866;4.636;2024-01-06T03:31:34;100037.97;;;5.67;100.00
79586;BME280;69054;50.866;4.636;2024-01-06T03:34:00;100043.56;;;5.65;100.00
79586;BME280;69054;50.866;4.636;2024-01-06T03:36:25;100037.31;;;5.65;100.00
79586;BME280;69054;50.866;4.636;2024-01-06T03:38:51;100052.91;;;5.63;100.00
79586;BME280;69054;50.866;4.636;2024-01-06T03:41:16;100052.25;;;5.61;100.00
79586;BME280;69054;50.866;4.636;2024-01-06T03:43:42;100058.09;;;5.49;100.00
79586;BME280;69054;50.866;4.636;2024-01-06T03:46:07;100054.44;;;5.42;100.00
79586;BME280;69054;50.866;4.636;2024-01-06T03:48:32;100046.16;;;5.36;100.00
79586;BME280;69054;50.866;4.636;2024-01-06T03:51:02;100054.66;;;5.32;100.00
79586;BME280;69054;50.866;4.636;2024-01-06T03:53:27;100052.19;;;5.23;100.00
79586;BME280;69054;50.866;4.636;2024-01-06T03:55:53;100059.97;;;5.18;100.00
79586;BME280;69054;50.866;4.636;2024-01-06T03:58:18;100057.63;;;5.14;100.00
79586;BME280;69054;50.866;4.636;2024-01-06T04:00:44;100057.28;;;5.18;100.00
79586;BME280;69054;50.866;4.636;2024-01-06T04:03:09;100066.78;;;5.13;100.00
79586;BME280;69054;50.866;4.636;2024-01-06T04:05:34;100073.03;;;5.14;100.00
79586;BME280;69054;50.866;4.636;2024-01-06T04:08:00;100071.72;;;5.10;100.00
79586;BME280;69054;50.866;4.636;2024-01-06T04:10:25;100076.66;;;5.06;100.00
79586;BME280;69054;50.866;4.636;2024-01-06T04:12:54;100083.06;;;5.05;100.00
79586;BME280;69054;50.866;4.636;2024-01-06T04:15:19;100078.34;;;5.07;100.00
79586;BME280;69054;50.866;4.636;2024-01-06T04:17:49;100081.88;;;5.08;100.00
79586;BME280;69054;50.866;4.636;2024-01-06T04:20:15;100077.84;;;5.04;100.00
79586;BME280;69054;50.866;4.636;2024-01-06T04:22:40;100087.84;;;5.03;100.00
79586;BME280;69054;50.866;4.636;2024-01-06T04:25:06;100090.03;;;5.00;100.00
79586;BME280;69054;50.866;4.636;2024-01-06T04:27:31;100086.84;;;4.96;100.00
79586;BME280;69054;50.866;4.636;2024-01-06T04:29:59;100092.97;;;4.90;100.00
79586;BME280;69054;50.866;4.636;2024-01-06T04:32:24;100091.78;;;4.92;100.00
79586;BME280;69054;50.866;4.636;2024-01-06T04:34:50;100100.72;;;4.93;100.00
79586;BME280;69054;50.866;4.636;2024-01-06T04:37:15;100094.97;;;4.96;100.00
79586;BME280;69054;50.866;4.636;2024-01-06T04:39:40;100100.03;;;4.99;100.00
79586;BME280;69054;50.866;4.636;2024-01-06T04:42:06;100102.72;;;4.99;100.00
79586;BME280;69054;50.866;4.636;2024-01-06T04:44:31;100107.31;;;4.98;100.00
79586;BME280;69054;50.866;4.636;2024-01-06T04:46:57;100110.84;;;4.99;100.00
79586;BME280;69054;50.866;4.636;2024-01-06T04:49:22;100110.19;;;4.97;100.00
79586;BME280;69054;50.866;4.636;2024-01-06T04:51:48;100116.63;;;4.96;100.00
79586;BME280;69054;50.866;4.636;2024-01-06T04:54:13;100112.22;;;4.95;100.00
79586;BME280;69054;50.866;4.636;2024-01-06T04:56:39;100115.28;;;4.92;100.00
79586;BME280;69054;50.866;4.636;2024-01-06T04:59:05;100109.38;;;4.88;100.00
79586;BME280;69054;50.866;4.636;2024-01-06T05:01:30;100124.09;;;4.86;100.00
79586;BME280;69054;50.866;4.636;2024-01-06T05:03:56;100122.44;;;4.85;100.00
79586;BME280;69054;50.866;4.636;2024-01-06T05:06:23;100121.75;;;4.83;100.00
79586;BME280;69054;50.866;4.636;2024-01-06T05:08:48;100121.25;;;4.79;100.00
79586;BME280;69054;50.866;4.636;2024-01-06T05:11:14;100123.78;;;4.80;100.00
79586;BME280;69054;50.866;4.636;2024-01-06T05:13:39;100130.22;;;4.79;100.00
79586;BME280;69054;50.866;4.636;2024-01-06T05:16:05;100130.56;;;4.85;100.00
79586;BME280;69054;50.866;4.636;2024-01-06T05:18:30;100131.56;;;4.84;100.00
79586;BME280;69054;50.866;4.636;2024-01-06T05:20:56;100128.88;;;4.84;100.00
79586;BME280;69054;50.866;4.636;2024-01-06T05:23:22;100141.38;;;4.85;100.00
79586;BME280;69054;50.866;4.636;2024-01-06T05:25:47;100143.41;;;4.83;100.00
79586;BME280;69054;50.866;4.636;2024-01-06T05:28:13;100144.75;;;4.87;100.00
79586;BME280;69054;50.866;4.636;2024-01-06T05:30:38;100148.47;;;4.86;100.00
79586;BME280;69054;50.866;4.636;2024-01-06T05:33:04;100151.53;;;4.83;100.00
79586;BME280;69054;50.866;4.636;2024-01-06T05:35:29;100159.66;;;4.83;100.00
79586;BME280;69054;50.866;4.636;2024-01-06T05:37:55;100157.28;;;4.79;100.00
79586;BME280;69054;50.866;4.636;2024-01-06T05:40:21;100164.22;;;4.74;100.00
79586;BME280;69054;50.866;4.636;2024-01-06T05:42:46;100160.03;;;4.71;100.00
79586;BME280;69054;50.866;4.636;2024-01-06T05:45:12;100165.44;;;4.63;100.00
79586;BME280;69054;50.866;4.636;2024-01-06T05:47:38;100172.25;;;4.59;100.00
79586;BME280;69054;50.866;4.636;2024-01-06T05:50:04;100181.22;;;4.51;100.00
79586;BME280;69054;50.866;4.636;2024-01-06T05:52:29;100170.41;;;4.51;100.00
79586;BME280;69054;50.866;4.636;2024-01-06T05:54:57;100177.81;;;4.49;100.00
79586;BME280;69054;50.866;4.636;2024-01-06T05:57:23;100179.00;;;4.47;100.00
79586;BME280;69054;50.866;4.636;2024-01-06T05:59:49;100191.84;;;4.44;100.00
79586;BME280;69054;50.866;4.636;2024-01-06T06:02:14;100184.59;;;4.37;100.00
79586;BME280;69054;50.866;4.636;2024-01-06T06:04:39;100192.72;;;4.37;100.00
79586;BME280;69054;50.866;4.636;2024-01-06T06:07:05;100192.03;;;4.35;100.00
79586;BME280;69054;50.866;4.636;2024-01-06T06:09:30;100193.91;;;4.26;100.00
79586;BME280;69054;50.866;4.636;2024-01-06T06:11:56;100191.69;;;4.21;100.00
79586;BME280;69054;50.866;4.636;2024-01-06T06:14:24;100203.19;;;4.23;100.00
79586;BME280;69054;50.866;4.636;2024-01-06T06:16:50;100212.16;;;4.24;100.00
79586;BME280;69054;50.866;4.636;2024-01-06T06:19:15;100217.56;;;4.24;100.00
79586;BME280;69054;50.866;4.636;2024-01-06T06:21:42;100219.25;;;4.25;100.00
79586;BME280;69054;50.866;4.636;2024-01-06T06:24:08;100226.34;;;4.26;100.00
79586;BME280;69054;50.866;4.636;2024-01-06T06:26:33;100236.34;;;4.25;100.00
79586;BME280;69054;50.866;4.636;2024-01-06T06:28:59;100239.88;;;4.26;100.00
79586;BME280;69054;50.866;4.636;2024-01-06T06:31:25;100243.59;;;4.25;100.00
79586;BME280;69054;50.866;4.636;2024-01-06T06:33:51;100246.81;;;4.29;100.00
79586;BME280;69054;50.866;4.636;2024-01-06T06:36:16;100250.03;;;4.24;100.00
79586;BME280;69054;50.866;4.636;2024-01-06T06:38:42;100257.63;;;4.12;100.00
79586;BME280;69054;50.866;4.636;2024-01-06T06:41:07;100253.72;;;4.06;100.00
79586;BME280;69054;50.866;4.636;2024-01-06T06:43:32;100263.00;;;3.96;100.00
79586;BME280;69054;50.866;4.636;2024-01-06T06:45:58;100262.16;;;3.95;100.00
79586;BME280;69054;50.866;4.636;2024-01-06T06:48:24;100260.25;;;3.87;100.00
79586;BME280;69054;50.866;4.636;2024-01-06T06:50:49;100258.38;;;3.80;100.00
79586;BME280;69054;50.866;4.636;2024-01-06T06:53:15;100271.88;;;3.71;100.00
79586;BME280;69054;50.866;4.636;2024-01-06T06:55:40;100270.16;;;3.70;100.00
79586;BME280;69054;50.866;4.636;2024-01-06T06:58:06;100283.84;;;3.69;100.00
79586;BME280;69054;50.866;4.636;2024-01-06T07:00:31;100287.72;;;3.66;100.00
79586;BME280;69054;50.866;4.636;2024-01-06T07:02:57;100287.56;;;3.68;100.00
79586;BME280;69054;50.866;4.636;2024-01-06T07:05:23;100293.13;;;3.66;100.00
79586;BME280;69054;50.866;4.636;2024-01-06T07:07:49;100294.16;;;3.65;100.00
79586;BME280;69054;50.866;4.636;2024-01-06T07:10:14;100305.78;;;3.66;100.00
79586;BME280;69054;50.866;4.636;2024-01-06T07:12:40;100302.41;;;3.64;100.00
79586;BME280;69054;50.866;4.636;2024-01-06T07:15:06;100306.28;;;3.61;100.00
79586;BME280;69054;50.866;4.636;2024-01-06T07:17:31;100307.28;;;3.60;100.00
79586;BME280;69054;50.866;4.636;2024-01-06T07:19:57;100315.03;;;3.55;100.00
79586;BME280;69054;50.866;4.636;2024-01-06T07:22:22;100321.44;;;3.54;100.00
79586;BME280;69054;50.866;4.636;2024-01-06T07:24:48;100325.16;;;3.53;100.00
79586;BME280;69054;50.866;4.636;2024-01-06T07:27:13;100327.53;;;3.56;100.00
79586;BME280;69054;50.866;4.636;2024-01-06T07:29:38;100332.09;;;3.55;100.00
79586;BME280;69054;50.866;4.636;2024-01-06T07:32:04;100332.09;;;3.55;100.00
79586;BME280;69054;50.866;4.636;2024-01-06T07:34:31;100338.34;;;3.56;100.00
79586;BME280;69054;50.866;4.636;2024-01-06T07:36:57;100344.28;;;3.60;100.00
79586;BME280;69054;50.866;4.636;2024-01-06T07:39:23;100348.13;;;3.57;100.00
79586;BME280;69054;50.866;4.636;2024-01-06T07:41:49;100350.84;;;3.57;100.00
79586;BME280;69054;50.866;4.636;2024-01-06T07:44:15;100354.72;;;3.54;100.00
79586;BME280;69054;50.866;4.636;2024-01-06T07:46:41;100362.19;;;3.61;100.00
79586;BME280;69054;50.866;4.636;2024-01-06T07:49:07;100356.78;;;3.61;100.00
79586;BME280;69054;50.866;4.636;2024-01-06T07:51:32;100358.78;;;3.59;100.00
79586;BME280;69054;50.866;4.636;2024-01-06T07:54:00;100370.63;;;3.58;100.00
79586;BME280;69054;50.866;4.636;2024-01-06T07:56:26;100367.28;;;3.64;100.00
79586;BME280;69054;50.866;4.636;2024-01-06T07:58:51;100376.53;;;3.61;100.00
79586;BME280;69054;50.866;4.636;2024-01-06T08:01:18;100383.81;;;3.61;100.00
79586;BME280;69054;50.866;4.636;2024-01-06T08:03:43;100379.41;;;3.60;100.00
79586;BME280;69054;50.866;4.636;2024-01-06T08:06:09;100381.25;;;3.59;100.00
79586;BME280;69054;50.866;4.636;2024-01-06T08:08:35;100391.03;;;3.60;100.00
79586;BME280;69054;50.866;4.636;2024-01-06T08:11:01;100396.44;;;3.60;100.00
79586;BME280;69054;50.866;4.636;2024-01-06T08:13:26;100398.31;;;3.60;100.00
79586;BME280;69054;50.866;4.636;2024-01-06T08:15:51;100410.19;;;3.67;100.00
79586;BME280;69054;50.866;4.636;2024-01-06T08:18:17;100408.63;;;3.64;100.00
79586;BME280;69054;50.866;4.636;2024-01-06T08:20:43;100412.34;;;3.63;100.00
79586;BME280;69054;50.866;4.636;2024-01-06T08:23:09;100425.00;;;3.63;100.00
79586;BME280;69054;50.866;4.636;2024-01-06T08:25:35;100429.78;;;3.69;100.00
79586;BME280;69054;50.866;4.636;2024-01-06T08:28:01;100427.63;;;3.72;100.00
79586;BME280;69054;50.866;4.636;2024-01-06T08:30:26;100434.53;;;3.75;100.00
79586;BME280;69054;50.866;4.636;2024-01-06T08:32:52;100435.09;;;3.79;100.00
79586;BME280;69054;50.866;4.636;2024-01-06T08:35:17;100440.00;;;3.83;100.00
79586;BME280;69054;50.866;4.636;2024-01-06T08:37:44;100437.47;;;3.82;100.00
79586;BME280;69054;50.866;4.636;2024-01-06T08:40:10;100446.09;;;3.85;100.00
79586;BME280;69054;50.866;4.636;2024-01-06T08:42:36;100446.94;;;3.86;100.00
79586;BME280;69054;50.866;4.636;2024-01-06T08:45:01;100446.78;;;3.87;100.00
79586;BME280;69054;50.866;4.636;2024-01-06T08:47:27;100452.88;;;3.89;100.00
79586;BME280;69054;50.866;4.636;2024-01-06T08:49:53;100448.31;;;3.90;100.00
79586;BME280;69054;50.866;4.636;2024-01-06T08:52:18;100455.03;;;3.86;100.00
79586;BME280;69054;50.866;4.636;2024-01-06T08:54:44;100459.25;;;3.80;100.00
79586;BME280;69054;50.866;4.636;2024-01-06T08:57:09;100462.13;;;3.79;100.00
79586;BME280;69054;50.866;4.636;2024-01-06T08:59:35;100470.22;;;3.79;100.00
79586;BME280;69054;50.866;4.636;2024-01-06T09:02:00;100469.03;;;3.81;100.00
79586;BME280;69054;50.866;4.636;2024-01-06T09:04:26;100470.53;;;3.76;100.00
79586;BME280;69054;50.866;4.636;2024-01-06T09:06:52;100480.16;;;3.78;100.00
79586;BME280;69054;50.866;4.636;2024-01-06T09:09:17;100489.16;;;3.79;100.00
79586;BME280;69054;50.866;4.636;2024-01-06T09:11:43;100492.00;;;3.77;100.00
79586;BME280;69054;50.866;4.636;2024-01-06T09:14:09;100491.47;;;3.73;100.00
79586;BME280;69054;50.866;4.636;2024-01-06T09:16:38;100494.13;;;3.65;100.00
79586;BME280;69054;50.866;4.636;2024-01-06T09:19:03;100504.22;;;3.63;100.00
79586;BME280;69054;50.866;4.636;2024-01-06T09:21:28;100501.16;;;3.58;100.00
79586;BME280;69054;50.866;4.636;2024-01-06T09:23:54;100506.56;;;3.58;100.00
79586;BME280;69054;50.866;4.636;2024-01-06T09:26:19;100503.53;;;3.61;100.00
79586;BME280;69054;50.866;4.636;2024-01-06T09:28:45;100510.19;;;3.67;100.00
79586;BME280;69054;50.866;4.636;2024-01-06T09:31:11;100517.13;;;3.69;100.00
79586;BME280;69054;50.866;4.636;2024-01-06T09:33:37;100517.41;;;3.66;100.00
79586;BME280;69054;50.866;4.636;2024-01-06T09:36:03;100517.41;;;3.66;100.00
79586;BME280;69054;50.866;4.636;2024-01-06T09:38:29;100525.59;;;3.75;100.00
79586;BME280;69054;50.866;4.636;2024-01-06T09:40:55;100520.88;;;3.77;100.00
79586;BME280;69054;50.866;4.636;2024-01-06T09:43:21;100534.38;;;3.77;100.00
79586;BME280;69054;50.866;4.636;2024-01-06T09:45:56;100526.22;;;3.68;100.00
79586;BME280;69054;50.866;4.636;2024-01-06T09:48:28;100535.88;;;3.71;100.00
79586;BME280;69054;50.866;4.636;2024-01-06T09:50:56;100542.66;;;3.75;100.00
79586;BME280;69054;50.866;4.636;2024-01-06T09:53:27;100546.06;;;3.77;100.00
79586;BME280;69054;50.866;4.636;2024-01-06T09:55:55;100544.72;;;3.81;100.00
79586;BME280;69054;50.866;4.636;2024-01-06T09:58:21;100546.44;;;3.82;100.00
79586;BME280;69054;50.866;4.636;2024-01-06T10:00:55;100549.59;;;3.78;100.00
79586;BME280;69054;50.866;4.636;2024-01-06T10:03:21;100555.38;;;3.83;100.00
79586;BME280;69054;50.866;4.636;2024-01-06T10:05:47;100560.31;;;3.87;100.00
79586;BME280;69054;50.866;4.636;2024-01-06T10:08:13;100567.59;;;3.87;100.00
79586;BME280;69054;50.866;4.636;2024-01-06T10:10:39;100566.59;;;3.88;100.00
79586;BME280;69054;50.866;4.636;2024-01-06T10:13:05;100574.47;;;3.81;100.00
79586;BME280;69054;50.866;4.636;2024-01-06T10:15:31;100572.06;;;3.78;100.00
79586;BME280;69054;50.866;4.636;2024-01-06T10:17:56;100586.06;;;3.73;100.00
79586;BME280;69054;50.866;4.636;2024-01-06T10:20:22;100592.16;;;3.76;100.00
79586;BME280;69054;50.866;4.636;2024-01-06T10:22:48;100582.34;;;3.75;100.00
79586;BME280;69054;50.866;4.636;2024-01-06T10:25:13;100586.84;;;3.66;100.00
79586;BME280;69054;50.866;4.636;2024-01-06T10:27:41;100585.59;;;3.60;100.00
79586;BME280;69054;50.866;4.636;2024-01-06T10:30:07;100588.84;;;3.46;100.00
79586;BME280;69054;50.866;4.636;2024-01-06T10:32:34;100590.72;;;3.45;100.00
79586;BME280;69054;50.866;4.636;2024-01-06T10:35:09;100592.69;;;3.43;100.00
79586;BME280;69054;50.866;4.636;2024-01-06T10:37:35;100593.16;;;3.38;100.00
79586;BME280;69054;50.866;4.636;2024-01-06T10:42:36;100591.88;;;3.43;100.00
79586;BME280;69054;50.866;4.636;2024-01-06T10:45:04;100591.56;;;3.46;100.00
79586;BME280;69054;50.866;4.636;2024-01-06T10:47:32;100595.09;;;3.46;100.00
79586;BME280;69054;50.866;4.636;2024-01-06T10:49:59;100597.81;;;3.46;100.00
79586;BME280;69054;50.866;4.636;2024-01-06T10:52:26;100601.38;;;3.47;100.00
79586;BME280;69054;50.866;4.636;2024-01-06T10:54:58;100603.47;;;3.53;100.00
79586;BME280;69054;50.866;4.636;2024-01-06T10:57:24;100603.19;;;3.46;100.00
79586;BME280;69054;50.866;4.636;2024-01-06T10:59:52;100606.22;;;3.43;100.00
79586;BME280;69054;50.866;4.636;2024-01-06T11:02:18;100613.22;;;3.36;100.00
79586;BME280;69054;50.866;4.636;2024-01-06T11:04:48;100614.72;;;3.30;100.00
79586;BME280;69054;50.866;4.636;2024-01-06T11:07:17;100610.59;;;3.26;100.00
79586;BME280;69054;50.866;4.636;2024-01-06T11:10:06;100619.16;;;3.22;100.00
79586;BME280;69054;50.866;4.636;2024-01-06T11:12:35;100621.47;;;3.16;100.00
79586;BME280;69054;50.866;4.636;2024-01-06T11:15:00;100620.75;;;3.14;100.00
79586;BME280;69054;50.866;4.636;2024-01-06T11:20:21;100632.41;;;3.15;100.00
79586;BME280;69054;50.866;4.636;2024-01-06T11:22:50;100640.97;;;3.10;100.00
79586;BME280;69054;50.866;4.636;2024-01-06T11:25:17;100631.03;;;3.11;100.00
79586;BME280;69054;50.866;4.636;2024-01-06T11:27:44;100634.72;;;3.10;100.00
79586;BME280;69054;50.866;4.636;2024-01-06T11:30:21;100632.63;;;3.04;100.00
79586;BME280;69054;50.866;4.636;2024-01-06T11:32:50;100627.22;;;3.04;100.00
79586;BME280;69054;50.866;4.636;2024-01-06T11:35:18;100626.38;;;3.03;100.00
79586;BME280;69054;50.866;4.636;2024-01-06T11:42:35;100624.97;;;2.99;100.00
79586;BME280;69054;50.866;4.636;2024-01-06T11:45:07;100638.19;;;3.02;100.00
79586;BME280;69054;50.866;4.636;2024-01-06T11:47:35;100620.38;;;3.09;100.00
79586;BME280;69054;50.866;4.636;2024-01-06T11:50:02;100626.16;;;3.14;100.00
79586;BME280;69054;50.866;4.636;2024-01-06T11:52:34;100619.22;;;3.12;100.00
79586;BME280;69054;50.866;4.636;2024-01-06T11:55:00;100619.31;;;3.20;100.00
79586;BME280;69054;50.866;4.636;2024-01-06T11:57:27;100622.03;;;3.20;100.00
79586;BME280;69054;50.866;4.636;2024-01-06T11:59:53;100617.91;;;3.16;100.00
79586;BME280;69054;50.866;4.636;2024-01-06T12:02:19;100613.50;;;3.15;100.00
79586;BME280;69054;50.866;4.636;2024-01-06T12:04:53;100613.75;;;3.22;100.00
79586;BME280;69054;50.866;4.636;2024-01-06T12:07:20;100619.31;;;3.20;100.00
79586;BME280;69054;50.866;4.636;2024-01-06T12:09:50;100614.59;;;3.22;100.00
79586;BME280;69054;50.866;4.636;2024-01-06T12:12:16;100613.59;;;3.23;100.00
79586;BME280;69054;50.866;4.636;2024-01-06T12:14:42;100618.72;;;3.26;100.00
79586;BME280;69054;50.866;4.636;2024-01-06T12:17:08;100625.50;;;3.30;100.00
79586;BME280;69054;50.866;4.636;2024-01-06T12:19:34;100620.09;;;3.30;100.00
79586;BME280;69054;50.866;4.636;2024-01-06T12:22:01;100620.56;;;3.26;100.00
79586;BME280;69054;50.866;4.636;2024-01-06T12:24:28;100615.78;;;3.37;100.00
79586;BME280;69054;50.866;4.636;2024-01-06T12:26:56;100614.09;;;3.36;100.00
79586;BME280;69054;50.866;4.636;2024-01-06T12:29:22;100620.50;;;3.35;100.00
79586;BME280;69054;50.866;4.636;2024-01-06T12:31:48;100618.41;;;3.29;100.00
79586;BME280;69054;50.866;4.636;2024-01-06T12:34:13;100620.66;;;3.34;100.00
79586;BME280;69054;50.866;4.636;2024-01-06T12:36:41;100614.41;;;3.33;100.00
79586;BME280;69054;50.866;4.636;2024-01-06T12:39:11;100611.53;;;3.35;100.00
79586;BME280;69054;50.866;4.636;2024-01-06T12:41:41;100611.53;;;3.35;100.00
79586;BME280;69054;50.866;4.636;2024-01-06T12:44:07;100612.69;;;3.32;100.00
79586;BME280;69054;50.866;4.636;2024-01-06T12:46:33;100608.59;;;3.28;100.00
79586;BME280;69054;50.866;4.636;2024-01-06T12:48:59;100612.53;;;3.34;100.00
79586;BME280;69054;50.866;4.636;2024-01-06T12:51:24;100625.22;;;3.33;100.00
79586;BME280;69054;50.866;4.636;2024-01-06T12:53:50;100627.19;;;3.31;100.00
79586;BME280;69054;50.866;4.636;2024-01-06T12:56:15;100622.09;;;3.28;100.00
79586;BME280;69054;50.866;4.636;2024-01-06T12:58:41;100636.63;;;3.27;100.00